Estación Meteorológica Peña el Pijo (Robertgarden) [ 12/17/17 01:22:34 CET ]

Fecha Hora Presion(HPa) Temp (°C) Humedad % Rocio (°C) Viento ( m/s) Direccion Lluvia 1Hora(mm) Lluvia 24H(mm) LLuvia Total(mm)
2017-Jun-16 01:01:34 1017.000 21.9 54 12.1         1427.09
2017-Jun-16 02:01:35 1016.100 19.8 58 11.3         1427.09
2017-Jun-16 03:01:38 1015.900 18.3 64 11.3         1427.09
2017-Jun-16 04:01:35 1015.600 17.9 67 11.7         1427.09
2017-Jun-16 05:01:37 1014.700 17.6 68 11.6         1427.09
2017-Jun-16 06:01:40 1014.500 16.9 70 11.4         1427.09
2017-Jun-16 07:01:44 1014.300 17.3 70 11.8         1427.09
2017-Jun-16 08:01:43 1014.400 18.2 70 12.7         1427.09
2017-Jun-16 09:01:50 1014.900 20.4 67 14.0         1427.09
2017-Jun-16 10:01:48 1015.200 25.1 58 16.2         1427.09
2017-Jun-16 11:01:52 1015.500 30.4 44 16.8         1427.09
2017-Jun-16 12:01:41 1015.400 32.9 28 11.9         1427.09
2017-Jun-16 13:01:52 1015.300 32.3 31 13.0         1427.09
2017-Jun-16 14:01:42 1015.100 35.8 27 13.7         1427.09
2017-Jun-16 15:01:46 1014.500 37.6 23 12.8         1427.09
2017-Jun-16 16:01:53 1014.200 37.2 24 13.0         1427.09
2017-Jun-16 17:01:53 1013.800 37.8 24 13.5         1427.09
2017-Jun-16 18:01:42 1013.500 36.2 24 12.2         1427.09
2017-Jun-16 19:01:37 1013.400 34.4 25 11.3         1427.09
2017-Jun-16 20:01:47 1013.800 31.8 27 10.3         1427.09
2017-Jun-16 21:01:51 1014.300 27.9 31 9.1         1427.09
2017-Jun-16 22:01:46 1014.800 24.2 38 8.9         1427.09
2017-Jun-16 23:01:42 1015.300 20.4 49 9.3         1427.09

Temperatura Máxima:37°    Temperatura Mínima:16°
Presión Máxima:1017.000 Hpa    Presión Mínima:1013.400 Hpa


Volver